sensor_id;sensor_type;location;lat;lon;timestamp;pressure;altitude;pressure_sealevel;temperature;humidity
34454;BME280;60061;52.080;5.312;2023-01-19T00:02:20;99897.0;;;3.29;100.0
34454;BME280;60061;52.080;5.312;2023-01-19T00:03:56;99894.0;;;3.09;100.0
34454;BME280;60061;52.080;5.312;2023-01-19T00:05:34;99895.0;;;3.23;100.0
34454;BME280;60061;52.080;5.312;2023-01-19T00:08:49;99895.0;;;3.26;100.0
34454;BME280;60061;52.080;5.312;2023-01-19T00:10:25;99898.0;;;3.18;100.0
34454;BME280;60061;52.080;5.312;2023-01-19T00:12:01;99892.0;;;3.25;100.0
34454;BME280;60061;52.080;5.312;2023-01-19T00:13:38;99888.0;;;3.18;100.0
34454;BME280;60061;52.080;5.312;2023-01-19T00:16:51;99883.0;;;3.23;100.0
34454;BME280;60061;52.080;5.312;2023-01-19T00:18:27;99890.0;;;3.16;100.0
34454;BME280;60061;52.080;5.312;2023-01-19T00:20:05;99894.0;;;3.18;100.0
34454;BME280;60061;52.080;5.312;2023-01-19T00:23:19;99888.0;;;3.08;100.0
34454;BME280;60061;52.080;5.312;2023-01-19T00:24:55;99891.0;;;3.13;100.0
34454;BME280;60061;52.080;5.312;2023-01-19T00:26:31;99890.0;;;3.13;100.0
34454;BME280;60061;52.080;5.312;2023-01-19T00:28:08;99890.0;;;3.0;100.0
34454;BME280;60061;52.080;5.312;2023-01-19T00:31:21;99894.0;;;3.06;100.0
34454;BME280;60061;52.080;5.312;2023-01-19T00:32:57;99893.0;;;3.15;100.0
34454;BME280;60061;52.080;5.312;2023-01-19T00:34:36;99899.0;;;3.1;100.0
34454;BME280;60061;52.080;5.312;2023-01-19T00:38:01;99909.0;;;3.05;100.0
34454;BME280;60061;52.080;5.312;2023-01-19T00:39:38;99901.0;;;3.14;100.0
34454;BME280;60061;52.080;5.312;2023-01-19T00:41:14;99910.0;;;3.14;100.0
34454;BME280;60061;52.080;5.312;2023-01-19T00:42:51;99910.0;;;3.22;100.0
34454;BME280;60061;52.080;5.312;2023-01-19T00:46:04;99908.0;;;3.38;100.0
34454;BME280;60061;52.080;5.312;2023-01-19T00:47:41;99905.0;;;3.33;100.0
34454;BME280;60061;52.080;5.312;2023-01-19T00:49:18;99905.0;;;3.24;100.0
34454;BME280;60061;52.080;5.312;2023-01-19T00:52:30;99896.0;;;3.46;100.0
34454;BME280;60061;52.080;5.312;2023-01-19T00:54:09;99893.0;;;3.59;100.0
34454;BME280;60061;52.080;5.312;2023-01-19T00:55:45;99892.0;;;3.45;100.0
34454;BME280;60061;52.080;5.312;2023-01-19T00:58:57;99906.0;;;3.53;100.0
34454;BME280;60061;52.080;5.312;2023-01-19T01:00:34;99905.0;;;3.44;100.0
34454;BME280;60061;52.080;5.312;2023-01-19T01:02:11;99899.0;;;3.32;100.0
34454;BME280;60061;52.080;5.312;2023-01-19T01:03:48;99899.0;;;3.27;100.0
34454;BME280;60061;52.080;5.312;2023-01-19T01:07:00;99888.0;;;3.28;100.0
34454;BME280;60061;52.080;5.312;2023-01-19T01:08:36;99883.0;;;3.32;100.0
34454;BME280;60061;52.080;5.312;2023-01-19T01:10:14;99881.0;;;3.31;100.0
34454;BME280;60061;52.080;5.312;2023-01-19T01:13:27;99891.0;;;3.42;100.0
34454;BME280;60061;52.080;5.312;2023-01-19T01:15:06;99893.0;;;3.43;100.0
34454;BME280;60061;52.080;5.312;2023-01-19T01:16:43;99898.0;;;3.29;100.0
34454;BME280;60061;52.080;5.312;2023-01-19T01:19:57;99902.0;;;3.29;100.0
34454;BME280;60061;52.080;5.312;2023-01-19T01:21:34;99902.0;;;3.02;100.0
34454;BME280;60061;52.080;5.312;2023-01-19T01:23:11;99899.0;;;3.05;100.0
34454;BME280;60061;52.080;5.312;2023-01-19T01:24:48;99905.0;;;3.11;100.0
34454;BME280;60061;52.080;5.312;2023-01-19T01:28:02;99903.0;;;3.3;100.0
34454;BME280;60061;52.080;5.312;2023-01-19T01:29:45;99908.0;;;3.36;100.0
34454;BME280;60061;52.080;5.312;2023-01-19T01:31:23;99910.0;;;3.41;100.0
34454;BME280;60061;52.080;5.312;2023-01-19T01:33:00;99908.0;;;3.53;100.0
34454;BME280;60061;52.080;5.312;2023-01-19T01:36:13;99914.0;;;3.31;100.0
34454;BME280;60061;52.080;5.312;2023-01-19T01:37:48;99924.0;;;3.31;100.0
34454;BME280;60061;52.080;5.312;2023-01-19T01:39:25;99923.0;;;3.35;100.0
34454;BME280;60061;52.080;5.312;2023-01-19T01:42:39;99926.0;;;3.41;100.0
34454;BME280;60061;52.080;5.312;2023-01-19T01:44:43;99923.0;;;3.36;100.0
34454;BME280;60061;52.080;5.312;2023-01-19T01:46:21;99923.0;;;3.27;100.0
34454;BME280;60061;52.080;5.312;2023-01-19T01:48:01;99918.0;;;3.26;100.0
34454;BME280;60061;52.080;5.312;2023-01-19T01:51:28;99922.0;;;3.42;100.0
34454;BME280;60061;52.080;5.312;2023-01-19T01:53:10;99918.0;;;3.56;100.0
34454;BME280;60061;52.080;5.312;2023-01-19T01:54:50;99922.0;;;3.47;100.0
34454;BME280;60061;52.080;5.312;2023-01-19T01:56:33;99912.0;;;3.57;100.0
34454;BME280;60061;52.080;5.312;2023-01-19T01:58:10;99920.0;;;3.56;100.0
34454;BME280;60061;52.080;5.312;2023-01-19T02:04:19;99925.0;;;3.58;100.0
34454;BME280;60061;52.080;5.312;2023-01-19T02:05:59;99926.0;;;3.53;100.0
34454;BME280;60061;52.080;5.312;2023-01-19T02:13:27;99930.0;;;3.54;100.0
34454;BME280;60061;52.080;5.312;2023-01-19T02:15:05;99939.0;;;3.58;100.0
34454;BME280;60061;52.080;5.312;2023-01-19T02:18:18;99931.0;;;3.56;100.0
34454;BME280;60061;52.080;5.312;2023-01-19T02:19:57;99936.0;;;3.65;100.0
34454;BME280;60061;52.080;5.312;2023-01-19T02:21:38;99941.0;;;3.62;100.0
34454;BME280;60061;52.080;5.312;2023-01-19T02:23:29;99947.0;;;3.6;100.0
34454;BME280;60061;52.080;5.312;2023-01-19T02:26:49;99947.0;;;3.48;100.0
34454;BME280;60061;52.080;5.312;2023-01-19T02:28:27;99953.0;;;3.56;100.0
34454;BME280;60061;52.080;5.312;2023-01-19T02:30:05;99960.0;;;3.59;100.0
34454;BME280;60061;52.080;5.312;2023-01-19T02:31:44;99952.0;;;3.54;100.0
34454;BME280;60061;52.080;5.312;2023-01-19T02:34:57;99949.0;;;3.51;100.0
34454;BME280;60061;52.080;5.312;2023-01-19T02:38:15;99956.0;;;3.51;100.0
34454;BME280;60061;52.080;5.312;2023-01-19T02:41:37;99961.0;;;3.49;100.0
34454;BME280;60061;52.080;5.312;2023-01-19T02:43:18;99970.0;;;3.52;100.0
34454;BME280;60061;52.080;5.312;2023-01-19T02:44:55;99983.0;;;3.47;100.0
34454;BME280;60061;52.080;5.312;2023-01-19T02:46:31;99991.0;;;3.51;100.0
34454;BME280;60061;52.080;5.312;2023-01-19T02:49:44;99991.0;;;3.45;100.0
34454;BME280;60061;52.080;5.312;2023-01-19T02:51:29;99986.0;;;3.44;100.0
34454;BME280;60061;52.080;5.312;2023-01-19T02:53:15;99987.0;;;3.42;100.0
34454;BME280;60061;52.080;5.312;2023-01-19T02:55:03;99999.0;;;3.49;100.0
34454;BME280;60061;52.080;5.312;2023-01-19T02:57:01;100005.0;;;3.53;100.0
34454;BME280;60061;52.080;5.312;2023-01-19T02:59:52;100005.0;;;3.42;100.0
34454;BME280;60061;52.080;5.312;2023-01-19T03:01:45;100011.0;;;3.44;100.0
34454;BME280;60061;52.080;5.312;2023-01-19T03:03:30;100014.0;;;3.55;100.0
34454;BME280;60061;52.080;5.312;2023-01-19T03:05:20;100012.0;;;3.53;100.0
34454;BME280;60061;52.080;5.312;2023-01-19T03:12:25;100002.0;;;3.55;100.0
34454;BME280;60061;52.080;5.312;2023-01-19T03:14:10;100000.0;;;3.74;100.0
34454;BME280;60061;52.080;5.312;2023-01-19T03:15:53;99994.0;;;3.84;100.0
34454;BME280;60061;52.080;5.312;2023-01-19T03:19:16;99993.0;;;3.74;100.0
34454;BME280;60061;52.080;5.312;2023-01-19T03:20:56;100006.0;;;3.65;100.0
34454;BME280;60061;52.080;5.312;2023-01-19T03:22:36;100002.0;;;3.71;100.0
34454;BME280;60061;52.080;5.312;2023-01-19T03:24:15;100005.0;;;3.94;100.0
34454;BME280;60061;52.080;5.312;2023-01-19T03:27:36;100002.0;;;3.71;100.0
34454;BME280;60061;52.080;5.312;2023-01-19T03:29:15;100000.0;;;3.81;100.0
34454;BME280;60061;52.080;5.312;2023-01-19T03:30:57;100007.0;;;3.72;100.0
34454;BME280;60061;52.080;5.312;2023-01-19T03:32:44;100015.0;;;3.81;100.0
34454;BME280;60061;52.080;5.312;2023-01-19T03:34:24;100023.0;;;3.87;100.0
34454;BME280;60061;52.080;5.312;2023-01-19T03:37:47;100018.0;;;3.51;100.0
34454;BME280;60061;52.080;5.312;2023-01-19T03:39:26;100009.0;;;3.46;100.0
34454;BME280;60061;52.080;5.312;2023-01-19T03:41:07;100003.0;;;3.35;100.0
34454;BME280;60061;52.080;5.312;2023-01-19T03:42:47;100014.0;;;3.25;100.0
34454;BME280;60061;52.080;5.312;2023-01-19T03:46:06;100025.0;;;3.43;100.0
34454;BME280;60061;52.080;5.312;2023-01-19T03:47:44;100019.0;;;3.41;100.0
34454;BME280;60061;52.080;5.312;2023-01-19T03:49:20;100023.0;;;3.45;100.0
34454;BME280;60061;52.080;5.312;2023-01-19T03:52:34;100032.0;;;3.54;100.0
34454;BME280;60061;52.080;5.312;2023-01-19T03:54:10;100050.0;;;3.06;100.0
34454;BME280;60061;52.080;5.312;2023-01-19T03:55:47;100052.0;;;2.97;100.0
34454;BME280;60061;52.080;5.312;2023-01-19T03:57:26;100051.0;;;3.15;100.0
34454;BME280;60061;52.080;5.312;2023-01-19T04:00:40;100046.0;;;3.16;100.0
34454;BME280;60061;52.080;5.312;2023-01-19T04:02:16;100050.0;;;3.08;100.0
34454;BME280;60061;52.080;5.312;2023-01-19T04:03:53;100053.0;;;3.03;100.0
34454;BME280;60061;52.080;5.312;2023-01-19T04:08:46;100052.0;;;3.07;100.0
34454;BME280;60061;52.080;5.312;2023-01-19T04:10:24;100043.0;;;2.84;100.0
34454;BME280;60061;52.080;5.312;2023-01-19T04:12:01;100046.0;;;2.68;100.0
34454;BME280;60061;52.080;5.312;2023-01-19T04:15:14;100043.0;;;2.65;100.0
34454;BME280;60061;52.080;5.312;2023-01-19T04:16:51;100037.0;;;2.83;100.0
34454;BME280;60061;52.080;5.312;2023-01-19T04:18:27;100044.0;;;3.02;100.0
34454;BME280;60061;52.080;5.312;2023-01-19T04:21:42;100040.0;;;3.0;100.0
34454;BME280;60061;52.080;5.312;2023-01-19T04:23:18;100039.0;;;3.0;100.0
34454;BME280;60061;52.080;5.312;2023-01-19T04:24:55;100041.0;;;3.05;100.0
34454;BME280;60061;52.080;5.312;2023-01-19T04:28:07;100040.0;;;3.07;100.0
34454;BME280;60061;52.080;5.312;2023-01-19T04:29:43;100044.0;;;3.06;100.0
34454;BME280;60061;52.080;5.312;2023-01-19T04:32:57;100042.0;;;3.07;100.0
34454;BME280;60061;52.080;5.312;2023-01-19T04:36:10;100042.0;;;3.23;100.0
34454;BME280;60061;52.080;5.312;2023-01-19T04:37:47;100043.0;;;3.29;100.0
34454;BME280;60061;52.080;5.312;2023-01-19T04:39:23;100055.0;;;3.31;100.0
34454;BME280;60061;52.080;5.312;2023-01-19T04:42:35;100055.0;;;3.32;100.0
34454;BME280;60061;52.080;5.312;2023-01-19T04:44:11;100056.0;;;3.25;100.0
34454;BME280;60061;52.080;5.312;2023-01-19T04:45:48;100056.0;;;3.22;100.0
34454;BME280;60061;52.080;5.312;2023-01-19T04:49:00;100053.0;;;3.16;100.0
34454;BME280;60061;52.080;5.312;2023-01-19T04:50:37;100057.0;;;3.13;100.0
34454;BME280;60061;52.080;5.312;2023-01-19T04:52:14;100055.0;;;3.1;100.0
34454;BME280;60061;52.080;5.312;2023-01-19T04:53:50;100062.0;;;3.09;100.0
34454;BME280;60061;52.080;5.312;2023-01-19T04:57:03;100066.0;;;3.12;100.0
34454;BME280;60061;52.080;5.312;2023-01-19T04:58:39;100070.0;;;3.14;100.0
34454;BME280;60061;52.080;5.312;2023-01-19T05:00:16;100073.0;;;3.18;100.0
34454;BME280;60061;52.080;5.312;2023-01-19T05:03:32;100081.0;;;3.14;100.0
34454;BME280;60061;52.080;5.312;2023-01-19T05:05:08;100085.0;;;2.97;100.0
34454;BME280;60061;52.080;5.312;2023-01-19T05:06:45;100078.0;;;2.83;100.0
34454;BME280;60061;52.080;5.312;2023-01-19T05:09:57;100082.0;;;2.99;100.0
34454;BME280;60061;52.080;5.312;2023-01-19T05:11:33;100105.0;;;3.07;100.0
34454;BME280;60061;52.080;5.312;2023-01-19T05:13:09;100101.0;;;2.87;100.0
34454;BME280;60061;52.080;5.312;2023-01-19T05:14:46;100109.0;;;2.86;100.0
34454;BME280;60061;52.080;5.312;2023-01-19T05:17:58;100096.0;;;2.82;100.0
34454;BME280;60061;52.080;5.312;2023-01-19T05:19:34;100093.0;;;2.92;100.0
34454;BME280;60061;52.080;5.312;2023-01-19T05:21:10;100095.0;;;3.13;100.0
34454;BME280;60061;52.080;5.312;2023-01-19T05:24:24;100099.0;;;3.03;100.0
34454;BME280;60061;52.080;5.312;2023-01-19T05:26:02;100100.0;;;3.19;100.0
34454;BME280;60061;52.080;5.312;2023-01-19T05:27:39;100099.0;;;3.14;100.0
34454;BME280;60061;52.080;5.312;2023-01-19T05:30:51;100098.0;;;3.27;100.0
34454;BME280;60061;52.080;5.312;2023-01-19T05:32:28;100099.0;;;3.46;100.0
34454;BME280;60061;52.080;5.312;2023-01-19T05:34:05;100102.0;;;3.5;100.0
34454;BME280;60061;52.080;5.312;2023-01-19T05:35:41;100101.0;;;3.52;100.0
34454;BME280;60061;52.080;5.312;2023-01-19T05:38:53;100105.0;;;3.57;100.0
34454;BME280;60061;52.080;5.312;2023-01-19T05:40:29;100103.0;;;3.64;100.0
34454;BME280;60061;52.080;5.312;2023-01-19T05:42:05;100105.0;;;3.55;100.0
34454;BME280;60061;52.080;5.312;2023-01-19T05:45:17;100105.0;;;3.58;100.0
34454;BME280;60061;52.080;5.312;2023-01-19T05:46:53;100113.0;;;3.59;100.0
34454;BME280;60061;52.080;5.312;2023-01-19T05:48:29;100111.0;;;3.61;100.0
34454;BME280;60061;52.080;5.312;2023-01-19T05:51:44;100108.0;;;3.53;100.0
34454;BME280;60061;52.080;5.312;2023-01-19T05:53:20;100111.0;;;3.63;100.0
34454;BME280;60061;52.080;5.312;2023-01-19T05:54:56;100118.0;;;3.64;100.0
34454;BME280;60061;52.080;5.312;2023-01-19T05:58:09;100115.0;;;3.66;100.0
34454;BME280;60061;52.080;5.312;2023-01-19T05:59:45;100121.0;;;3.61;100.0
34454;BME280;60061;52.080;5.312;2023-01-19T06:01:22;100121.0;;;3.66;100.0
34454;BME280;60061;52.080;5.312;2023-01-19T06:02:59;100127.0;;;3.76;100.0
34454;BME280;60061;52.080;5.312;2023-01-19T06:06:14;100130.0;;;3.71;100.0
34454;BME280;60061;52.080;5.312;2023-01-19T06:07:50;100137.0;;;3.86;100.0
34454;BME280;60061;52.080;5.312;2023-01-19T06:09:26;100133.0;;;3.76;100.0
34454;BME280;60061;52.080;5.312;2023-01-19T06:12:41;100131.0;;;3.65;100.0
34454;BME280;60061;52.080;5.312;2023-01-19T06:14:18;100140.0;;;3.58;100.0
34454;BME280;60061;52.080;5.312;2023-01-19T06:15:56;100140.0;;;3.52;100.0
34454;BME280;60061;52.080;5.312;2023-01-19T06:17:33;100143.0;;;3.46;100.0
34454;BME280;60061;52.080;5.312;2023-01-19T06:22:22;100150.0;;;3.45;100.0
34454;BME280;60061;52.080;5.312;2023-01-19T06:23:58;100152.0;;;3.34;100.0
34454;BME280;60061;52.080;5.312;2023-01-19T06:27:12;100153.0;;;3.43;100.0
34454;BME280;60061;52.080;5.312;2023-01-19T06:28:49;100156.0;;;3.41;100.0
34454;BME280;60061;52.080;5.312;2023-01-19T06:30:26;100155.0;;;3.42;100.0
34454;BME280;60061;52.080;5.312;2023-01-19T06:33:40;100159.0;;;3.52;100.0
34454;BME280;60061;52.080;5.312;2023-01-19T06:35:17;100161.0;;;3.48;100.0
34454;BME280;60061;52.080;5.312;2023-01-19T06:36:54;100160.0;;;3.43;100.0
34454;BME280;60061;52.080;5.312;2023-01-19T06:38:30;100167.0;;;3.44;100.0
34454;BME280;60061;52.080;5.312;2023-01-19T06:41:44;100172.0;;;3.59;100.0
34454;BME280;60061;52.080;5.312;2023-01-19T06:43:21;100174.0;;;3.5;100.0
34454;BME280;60061;52.080;5.312;2023-01-19T06:44:57;100176.0;;;3.59;100.0
34454;BME280;60061;52.080;5.312;2023-01-19T06:48:11;100184.0;;;3.38;100.0
34454;BME280;60061;52.080;5.312;2023-01-19T06:49:48;100189.0;;;3.29;100.0
34454;BME280;60061;52.080;5.312;2023-01-19T06:51:24;100190.0;;;3.22;100.0
34454;BME280;60061;52.080;5.312;2023-01-19T06:54:37;100195.0;;;3.16;100.0
34454;BME280;60061;52.080;5.312;2023-01-19T06:56:14;100197.0;;;3.11;100.0
34454;BME280;60061;52.080;5.312;2023-01-19T06:57:55;100205.0;;;3.03;100.0
34454;BME280;60061;52.080;5.312;2023-01-19T06:59:31;100205.0;;;3.05;100.0
34454;BME280;60061;52.080;5.312;2023-01-19T07:02:45;100205.0;;;2.93;100.0
34454;BME280;60061;52.080;5.312;2023-01-19T07:04:21;100208.0;;;2.92;100.0
34454;BME280;60061;52.080;5.312;2023-01-19T07:05:59;100213.0;;;2.89;100.0
34454;BME280;60061;52.080;5.312;2023-01-19T07:09:16;100216.0;;;2.93;100.0
34454;BME280;60061;52.080;5.312;2023-01-19T07:10:58;100218.0;;;2.91;100.0
34454;BME280;60061;52.080;5.312;2023-01-19T07:12:35;100223.0;;;2.87;100.0
34454;BME280;60061;52.080;5.312;2023-01-19T07:14:11;100225.0;;;2.85;100.0
34454;BME280;60061;52.080;5.312;2023-01-19T07:17:23;100233.0;;;2.97;100.0
34454;BME280;60061;52.080;5.312;2023-01-19T07:18:59;100237.0;;;2.9;100.0
34454;BME280;60061;52.080;5.312;2023-01-19T07:20:36;100240.0;;;2.87;100.0
34454;BME280;60061;52.080;5.312;2023-01-19T07:23:50;100244.0;;;3.08;100.0
34454;BME280;60061;52.080;5.312;2023-01-19T07:25:27;100251.0;;;3.0;100.0
34454;BME280;60061;52.080;5.312;2023-01-19T07:27:04;100251.0;;;2.9;100.0
34454;BME280;60061;52.080;5.312;2023-01-19T07:28:40;100258.0;;;2.77;100.0
34454;BME280;60061;52.080;5.312;2023-01-19T07:31:54;100257.0;;;2.78;100.0
34454;BME280;60061;52.080;5.312;2023-01-19T07:33:30;100264.0;;;2.85;100.0
34454;BME280;60061;52.080;5.312;2023-01-19T07:35:07;100265.0;;;2.75;100.0
34454;BME280;60061;52.080;5.312;2023-01-19T07:38:20;100269.0;;;2.71;100.0
34454;BME280;60061;52.080;5.312;2023-01-19T07:39:57;100274.0;;;2.66;100.0
34454;BME280;60061;52.080;5.312;2023-01-19T07:41:33;100264.0;;;2.68;100.0
34454;BME280;60061;52.080;5.312;2023-01-19T07:44:45;100272.0;;;2.68;100.0
34454;BME280;60061;52.080;5.312;2023-01-19T07:46:23;100269.0;;;2.67;100.0
34454;BME280;60061;52.080;5.312;2023-01-19T07:48:00;100277.0;;;2.72;100.0
34454;BME280;60061;52.080;5.312;2023-01-19T07:49:37;100281.0;;;2.71;100.0
34454;BME280;60061;52.080;5.312;2023-01-19T07:52:54;100286.0;;;2.72;100.0
34454;BME280;60061;52.080;5.312;2023-01-19T07:54:32;100291.0;;;2.74;100.0
34454;BME280;60061;52.080;5.312;2023-01-19T07:56:08;100290.0;;;2.73;100.0
34454;BME280;60061;52.080;5.312;2023-01-19T07:59:24;100295.0;;;2.8;100.0
34454;BME280;60061;52.080;5.312;2023-01-19T08:01:04;100299.0;;;2.84;100.0
34454;BME280;60061;52.080;5.312;2023-01-19T08:02:41;100301.0;;;2.83;100.0
34454;BME280;60061;52.080;5.312;2023-01-19T08:04:18;100300.0;;;2.72;100.0
34454;BME280;60061;52.080;5.312;2023-01-19T08:07:32;100301.0;;;2.64;100.0
34454;BME280;60061;52.080;5.312;2023-01-19T08:09:11;100307.0;;;2.63;100.0
34454;BME280;60061;52.080;5.312;2023-01-19T08:10:48;100311.0;;;2.6;100.0
34454;BME280;60061;52.080;5.312;2023-01-19T08:14:01;100312.0;;;2.57;100.0
34454;BME280;60061;52.080;5.312;2023-01-19T08:15:38;100316.0;;;2.46;100.0
34454;BME280;60061;52.080;5.312;2023-01-19T08:17:14;100320.0;;;2.46;100.0
34454;BME280;60061;52.080;5.312;2023-01-19T08:20:28;100321.0;;;2.39;100.0
34454;BME280;60061;52.080;5.312;2023-01-19T08:22:05;100322.0;;;2.29;100.0
34454;BME280;60061;52.080;5.312;2023-01-19T08:23:41;100325.0;;;2.27;100.0
34454;BME280;60061;52.080;5.312;2023-01-19T08:25:17;100330.0;;;2.19;100.0
34454;BME280;60061;52.080;5.312;2023-01-19T08:28:36;100333.0;;;2.21;100.0
34454;BME280;60061;52.080;5.312;2023-01-19T08:30:12;100334.0;;;2.14;100.0
34454;BME280;60061;52.080;5.312;2023-01-19T08:31:48;100334.0;;;2.25;100.0
34454;BME280;60061;52.080;5.312;2023-01-19T08:35:01;100339.0;;;2.29;100.0
34454;BME280;60061;52.080;5.312;2023-01-19T08:36:38;100347.0;;;2.17;100.0
34454;BME280;60061;52.080;5.312;2023-01-19T08:38:16;100350.0;;;2.23;100.0
34454;BME280;60061;52.080;5.312;2023-01-19T08:39:53;100357.0;;;2.23;100.0
34454;BME280;60061;52.080;5.312;2023-01-19T08:43:08;100361.0;;;2.07;100.0
34454;BME280;60061;52.080;5.312;2023-01-19T08:44:47;100365.0;;;2.09;100.0
34454;BME280;60061;52.080;5.312;2023-01-19T08:46:23;100366.0;;;2.04;100.0
34454;BME280;60061;52.080;5.312;2023-01-19T08:49:36;100369.0;;;2.02;100.0
34454;BME280;60061;52.080;5.312;2023-01-19T08:51:13;100370.0;;;2.04;100.0
34454;BME280;60061;52.080;5.312;2023-01-19T08:52:51;100368.0;;;2.08;100.0
34454;BME280;60061;52.080;5.312;2023-01-19T08:54:30;100365.0;;;2.1;100.0
34454;BME280;60061;52.080;5.312;2023-01-19T08:57:50;100367.0;;;2.15;100.0
34454;BME280;60061;52.080;5.312;2023-01-19T08:59:27;100374.0;;;2.21;100.0
34454;BME280;60061;52.080;5.312;2023-01-19T09:01:03;100377.0;;;2.27;100.0
34454;BME280;60061;52.080;5.312;2023-01-19T09:04:16;100385.0;;;2.27;100.0
34454;BME280;60061;52.080;5.312;2023-01-19T09:05:52;100385.0;;;2.38;100.0
34454;BME280;60061;52.080;5.312;2023-01-19T09:07:28;100385.0;;;2.44;100.0
34454;BME280;60061;52.080;5.312;2023-01-19T09:09:06;100390.0;;;2.48;100.0
34454;BME280;60061;52.080;5.312;2023-01-19T09:12:22;100393.0;;;2.59;100.0
34454;BME280;60061;52.080;5.312;2023-01-19T09:13:58;100392.0;;;2.62;100.0
34454;BME280;60061;52.080;5.312;2023-01-19T09:15:36;100387.0;;;2.89;100.0
34454;BME280;60061;52.080;5.312;2023-01-19T09:18:49;100386.0;;;2.83;100.0
34454;BME280;60061;52.080;5.312;2023-01-19T09:20:25;100389.0;;;2.91;100.0
34454;BME280;60061;52.080;5.312;2023-01-19T09:22:02;100391.0;;;2.9;100.0
34454;BME280;60061;52.080;5.312;2023-01-19T09:25:14;100393.0;;;2.93;100.0
34454;BME280;60061;52.080;5.312;2023-01-19T09:26:50;100394.0;;;2.91;100.0
34454;BME280;60061;52.080;5.312;2023-01-19T09:28:27;100403.0;;;3.0;100.0
34454;BME280;60061;52.080;5.312;2023-01-19T09:30:05;100403.0;;;3.03;100.0
34454;BME280;60061;52.080;5.312;2023-01-19T09:33:19;100402.0;;;3.0;100.0
34454;BME280;60061;52.080;5.312;2023-01-19T09:34:56;100405.0;;;2.95;100.0
34454;BME280;60061;52.080;5.312;2023-01-19T09:36:34;100399.0;;;3.02;100.0
34454;BME280;60061;52.080;5.312;2023-01-19T09:39:48;100402.0;;;3.02;100.0
34454;BME280;60061;52.080;5.312;2023-01-19T09:41:25;100405.0;;;3.05;100.0
34454;BME280;60061;52.080;5.312;2023-01-19T09:43:12;100405.0;;;3.1;100.0
34454;BME280;60061;52.080;5.312;2023-01-19T09:44:49;100405.0;;;3.13;100.0
34454;BME280;60061;52.080;5.312;2023-01-19T09:48:21;100406.0;;;3.1;100.0
34454;BME280;60061;52.080;5.312;2023-01-19T09:50:08;100411.0;;;3.21;100.0
34454;BME280;60061;52.080;5.312;2023-01-19T09:51:51;100409.0;;;3.25;100.0
34454;BME280;60061;52.080;5.312;2023-01-19T09:53:39;100418.0;;;3.44;100.0
34454;BME280;60061;52.080;5.312;2023-01-19T09:55:25;100419.0;;;3.47;100.0
34454;BME280;60061;52.080;5.312;2023-01-19T09:58:46;100415.0;;;3.61;100.0
34454;BME280;60061;52.080;5.312;2023-01-19T10:00:24;100414.0;;;3.72;100.0
34454;BME280;60061;52.080;5.312;2023-01-19T10:02:13;100420.0;;;3.86;100.0
34454;BME280;60061;52.080;5.312;2023-01-19T10:04:08;100418.0;;;3.9;100.0
34454;BME280;60061;52.080;5.312;2023-01-19T10:06:00;100421.0;;;3.91;100.0
34454;BME280;60061;52.080;5.312;2023-01-19T10:09:33;100426.0;;;3.85;100.0
34454;BME280;60061;52.080;5.312;2023-01-19T10:11:23;100426.0;;;3.99;100.0
34454;BME280;60061;52.080;5.312;2023-01-19T10:13:20;100428.0;;;3.99;100.0
34454;BME280;60061;52.080;5.312;2023-01-19T10:15:16;100430.0;;;3.91;100.0
34454;BME280;60061;52.080;5.312;2023-01-19T10:17:08;100428.0;;;4.03;100.0
34454;BME280;60061;52.080;5.312;2023-01-19T10:18:57;100432.0;;;4.09;100.0
34454;BME280;60061;52.080;5.312;2023-01-19T10:20:38;100438.0;;;4.2;100.0
34454;BME280;60061;52.080;5.312;2023-01-19T10:22:21;100437.0;;;4.18;100.0
34454;BME280;60061;52.080;5.312;2023-01-19T10:25:42;100438.0;;;4.2;100.0
34454;BME280;60061;52.080;5.312;2023-01-19T10:27:23;100430.0;;;4.21;100.0
34454;BME280;60061;52.080;5.312;2023-01-19T10:29:04;100436.0;;;4.24;100.0
34454;BME280;60061;52.080;5.312;2023-01-19T10:30:43;100438.0;;;4.12;100.0
34454;BME280;60061;52.080;5.312;2023-01-19T10:34:06;100434.0;;;4.32;100.0
34454;BME280;60061;52.080;5.312;2023-01-19T10:35:47;100435.0;;;4.37;100.0
34454;BME280;60061;52.080;5.312;2023-01-19T10:37:28;100432.0;;;4.37;100.0
34454;BME280;60061;52.080;5.312;2023-01-19T10:39:10;100436.0;;;4.3;100.0
34454;BME280;60061;52.080;5.312;2023-01-19T10:42:36;100438.0;;;4.37;100.0
34454;BME280;60061;52.080;5.312;2023-01-19T10:44:22;100443.0;;;4.29;100.0
34454;BME280;60061;52.080;5.312;2023-01-19T10:45:59;100439.0;;;4.41;100.0
34454;BME280;60061;52.080;5.312;2023-01-19T10:47:38;100436.0;;;4.37;100.0
34454;BME280;60061;52.080;5.312;2023-01-19T10:51:02;100437.0;;;4.37;100.0
34454;BME280;60061;52.080;5.312;2023-01-19T10:52:41;100441.0;;;4.51;100.0
34454;BME280;60061;52.080;5.312;2023-01-19T10:54:18;100438.0;;;4.61;100.0
34454;BME280;60061;52.080;5.312;2023-01-19T10:56:10;100443.0;;;4.5;100.0
34454;BME280;60061;52.080;5.312;2023-01-19T10:59:29;100444.0;;;4.67;100.0
34454;BME280;60061;52.080;5.312;2023-01-19T11:01:13;100440.0;;;4.75;100.0
34454;BME280;60061;52.080;5.312;2023-01-19T11:04:28;100436.0;;;4.74;100.0
34454;BME280;60061;52.080;5.312;2023-01-19T11:07:57;100441.0;;;4.88;100.0
34454;BME280;60061;52.080;5.312;2023-01-19T11:09:33;100441.0;;;4.87;100.0
34454;BME280;60061;52.080;5.312;2023-01-19T11:11:12;100446.0;;;4.92;100.0
34454;BME280;60061;52.080;5.312;2023-01-19T11:12:56;100444.0;;;4.86;100.0
34454;BME280;60061;52.080;5.312;2023-01-19T11:14:36;100445.0;;;5.01;100.0
34454;BME280;60061;52.080;5.312;2023-01-19T11:18:03;100448.0;;;5.12;100.0
34454;BME280;60061;52.080;5.312;2023-01-19T11:19:40;100451.0;;;5.25;100.0
34454;BME280;60061;52.080;5.312;2023-01-19T11:21:21;100455.0;;;5.03;100.0
34454;BME280;60061;52.080;5.312;2023-01-19T11:23:15;100455.0;;;4.97;100.0
34454;BME280;60061;52.080;5.312;2023-01-19T11:26:39;100458.0;;;5.05;100.0
34454;BME280;60061;52.080;5.312;2023-01-19T11:28:19;100460.0;;;4.99;100.0
34454;BME280;60061;52.080;5.312;2023-01-19T11:30:04;100452.0;;;4.93;100.0
34454;BME280;60061;52.080;5.312;2023-01-19T11:31:42;100453.0;;;5.13;100.0
34454;BME280;60061;52.080;5.312;2023-01-19T11:35:26;100456.0;;;5.07;100.0
34454;BME280;60061;52.080;5.312;2023-01-19T11:37:29;100453.0;;;5.07;100.0
34454;BME280;60061;52.080;5.312;2023-01-19T11:39:19;100455.0;;;5.16;100.0
34454;BME280;60061;52.080;5.312;2023-01-19T11:40:58;100453.0;;;5.03;100.0